createdAt,value
2018-12-14T00:01:58.826Z,11.67
2018-12-14T00:04:30.436Z,12.87
2018-12-14T00:07:01.480Z,11.47
2018-12-14T00:09:32.708Z,14.50
2018-12-14T00:12:04.023Z,11.70
2018-12-14T00:14:35.932Z,12.20
2018-12-14T00:17:06.863Z,11.33
2018-12-14T00:19:37.843Z,11.50
2018-12-14T00:22:11.682Z,10.93
2018-12-14T00:24:45.523Z,13.07
2018-12-14T00:27:17.691Z,12.83
2018-12-14T00:29:49.167Z,10.57
2018-12-14T00:32:20.482Z,12.20
2018-12-14T00:34:52.146Z,12.63
2018-12-14T00:37:23.043Z,13.67
2018-12-14T00:39:56.651Z,11.60
2018-12-14T00:42:27.991Z,13.23
2018-12-14T00:45:01.673Z,11.07
2018-12-14T00:47:33.187Z,11.13
2018-12-14T00:50:08.206Z,12.90
2018-12-14T00:52:41.815Z,13.60
2018-12-14T00:55:15.534Z,12.73
2018-12-14T00:57:46.855Z,12.27
2018-12-14T01:00:18.027Z,13.63
2018-12-14T01:02:49.123Z,12.90
2018-12-14T01:05:20.395Z,12.80
2018-12-14T01:07:51.349Z,13.37
2018-12-14T01:10:23.035Z,12.03
2018-12-14T01:12:54.390Z,10.57
2018-12-14T01:15:25.462Z,12.70
2018-12-14T01:17:56.215Z,11.97
2018-12-14T01:20:27.361Z,11.17
2018-12-14T01:22:58.446Z,13.23
2018-12-14T01:25:31.955Z,14.03
2018-12-14T01:28:03.231Z,14.67
2018-12-14T01:30:34.262Z,12.00
2018-12-14T01:33:09.979Z,11.27
2018-12-14T01:35:41.352Z,14.57
2018-12-14T01:38:12.374Z,10.40
2018-12-14T01:40:45.771Z,12.47
2018-12-14T01:43:17.171Z,12.90
2018-12-14T01:45:48.167Z,11.10
2018-12-14T01:48:19.178Z,11.13
2018-12-14T01:50:50.291Z,11.00
2018-12-14T01:53:21.231Z,9.87
2018-12-14T01:55:52.932Z,13.20
2018-12-14T01:58:24.091Z,10.57
2018-12-14T02:00:55.287Z,11.23
2018-12-14T02:03:26.075Z,9.27
2018-12-14T02:05:57.275Z,8.33
2018-12-14T02:08:28.387Z,10.40
2018-12-14T02:11:01.847Z,10.63
2018-12-14T02:13:33.339Z,9.30
2018-12-14T02:16:06.862Z,10.93
2018-12-14T02:18:38.445Z,10.80
2018-12-14T02:21:09.442Z,9.10
2018-12-14T02:23:42.900Z,9.40
2018-12-14T02:26:14.475Z,9.20
2018-12-14T02:28:45.683Z,9.13
2018-12-14T02:31:16.727Z,14.57
2018-12-14T02:33:47.696Z,9.83
2018-12-14T02:36:21.425Z,10.43
2018-12-14T02:38:52.815Z,10.30
2018-12-14T02:41:23.948Z,8.60
2018-12-14T02:43:54.903Z,7.90
2018-12-14T02:46:28.540Z,9.97
2018-12-14T02:49:00.034Z,10.47
2018-12-14T02:51:30.922Z,11.30
2018-12-14T02:54:00.102Z,8.97
2018-12-14T02:56:31.329Z,11.50
2018-12-14T02:59:02.257Z,11.40
2018-12-14T03:01:33.147Z,9.07
2018-12-14T03:04:04.371Z,9.10
2018-12-14T03:06:38.652Z,11.77
2018-12-14T03:09:08.211Z,12.10
2018-12-14T03:11:42.331Z,10.00
2018-12-14T03:14:13.824Z,9.43
2018-12-14T03:16:46.874Z,11.23
2018-12-14T03:19:18.549Z,10.87
2018-12-14T03:21:49.640Z,10.13
2018-12-14T03:24:20.698Z,9.77
2018-12-14T03:26:51.901Z,10.40
2018-12-14T03:29:22.596Z,9.57
2018-12-14T03:31:56.325Z,12.47
2018-12-14T03:34:27.950Z,9.20
2018-12-14T03:44:36.184Z,11.50
2018-12-14T03:47:07.749Z,11.77
2018-12-14T03:49:38.755Z,11.37
2018-12-14T03:52:12.317Z,12.60
2018-12-14T03:54:43.888Z,12.17
2018-12-14T03:57:14.844Z,12.03
2018-12-14T03:59:48.463Z,9.57
2018-12-14T04:02:19.535Z,11.43
2018-12-14T04:04:50.551Z,9.37
2018-12-14T04:07:24.139Z,11.23
2018-12-14T04:09:55.781Z,11.27
2018-12-14T04:12:29.239Z,11.53
2018-12-14T04:15:00.746Z,12.07
2018-12-14T04:17:34.528Z,10.70
2018-12-14T04:20:06.804Z,12.90
2018-12-14T04:22:40.528Z,9.67
2018-12-14T04:25:14.443Z,12.30
2018-12-14T04:27:48.635Z,12.03
2018-12-14T04:30:19.988Z,12.43
2018-12-14T04:32:50.899Z,11.00
2018-12-14T04:35:22.198Z,10.70
2018-12-14T04:37:55.644Z,14.10
2018-12-14T04:40:27.044Z,11.53
2018-12-14T04:47:59.600Z,11.87
2018-12-14T04:50:32.925Z,14.17
2018-12-14T04:53:06.946Z,12.20
2018-12-14T04:55:36.237Z,11.10
2018-12-14T04:58:07.263Z,13.13
2018-12-14T05:00:38.194Z,12.40
2018-12-14T05:03:11.755Z,13.17
2018-12-14T05:05:42.876Z,11.80
2018-12-14T05:08:14.179Z,10.57
2018-12-14T05:10:47.815Z,13.30
2018-12-14T05:13:19.615Z,11.60
2018-12-14T05:15:50.719Z,12.83
2018-12-14T05:18:19.977Z,12.23
2018-12-14T05:20:51.472Z,11.20
2018-12-14T05:23:22.513Z,10.67
2018-12-14T05:25:55.896Z,10.83
2018-12-14T05:28:27.609Z,12.53
2018-12-14T05:30:58.511Z,11.33
2018-12-14T05:33:29.840Z,12.33
2018-12-14T05:36:01.112Z,12.87
2018-12-14T05:38:34.603Z,12.03
2018-12-14T05:41:06.095Z,11.20
2018-12-14T05:43:36.876Z,12.13
2018-12-14T05:46:08.514Z,12.13
2018-12-14T05:48:40.316Z,11.30
2018-12-14T05:51:14.631Z,13.03
2018-12-14T05:53:46.015Z,12.30
2018-12-14T05:56:16.999Z,12.73
2018-12-14T05:58:47.900Z,12.43
2018-12-14T06:01:18.898Z,11.40
2018-12-14T06:03:52.772Z,13.27
2018-12-14T06:06:23.867Z,14.27
2018-12-14T06:08:54.718Z,13.17
2018-12-14T06:11:28.512Z,13.13
2018-12-14T06:13:57.692Z,12.90
2018-12-14T06:16:28.735Z,11.10
2018-12-14T06:19:00.015Z,13.27
2018-12-14T06:21:31.132Z,10.70
2018-12-14T06:24:03.275Z,13.70
2018-12-14T06:26:32.798Z,12.73
2018-12-14T06:29:06.208Z,13.33
2018-12-14T06:31:37.983Z,13.60
2018-12-14T06:34:11.602Z,9.40
2018-12-14T06:36:43.486Z,11.90
2018-12-14T06:39:15.574Z,15.07
2018-12-14T06:41:47.460Z,11.77
2018-12-14T06:44:18.431Z,13.47
2018-12-14T06:46:49.223Z,12.43
2018-12-14T06:49:20.171Z,12.20
2018-12-14T06:51:51.233Z,13.03
2018-12-14T06:54:22.306Z,14.27
2018-12-14T06:56:55.741Z,12.87
2018-12-14T06:59:27.011Z,12.83
2018-12-14T07:01:57.786Z,12.57
2018-12-14T07:04:27.159Z,14.07
2018-12-14T07:07:04.057Z,13.97
2018-12-14T07:09:34.301Z,15.63
2018-12-14T07:12:06.099Z,13.07
2018-12-14T07:14:35.788Z,15.23
2018-12-14T07:17:07.056Z,13.70
2018-12-14T07:19:37.868Z,16.77
2018-12-14T07:22:09.223Z,14.03
2018-12-14T07:24:40.111Z,14.10
2018-12-14T07:27:11.363Z,14.00
2018-12-14T07:29:42.380Z,13.27
2018-12-14T07:32:15.849Z,11.87
2018-12-14T07:34:47.130Z,14.80
2018-12-14T07:37:20.759Z,13.17
2018-12-14T07:39:52.252Z,13.20
2018-12-14T07:42:23.428Z,12.43
2018-12-14T07:44:54.601Z,13.50
2018-12-14T07:47:26.244Z,15.63
2018-12-14T07:49:57.272Z,16.30
2018-12-14T07:52:30.619Z,13.00
2018-12-14T07:55:02.145Z,12.43
2018-12-14T07:57:36.412Z,15.67
2018-12-14T08:00:10.527Z,13.67
2018-12-14T08:02:41.741Z,14.57
2018-12-14T08:05:12.975Z,12.97
2018-12-14T08:07:46.387Z,13.63
2018-12-14T08:10:22.709Z,14.77
2018-12-14T08:12:54.162Z,13.67
2018-12-14T08:15:26.247Z,12.97
2018-12-14T08:17:57.856Z,17.60
2018-12-14T08:20:28.996Z,14.50
2018-12-14T08:23:00.243Z,15.97
2018-12-14T08:25:31.556Z,15.90
2018-12-14T08:28:05.355Z,14.77
2018-12-14T08:30:36.651Z,16.90
2018-12-14T08:33:08.031Z,14.13
2018-12-14T08:35:39.819Z,12.50
2018-12-14T08:38:11.567Z,14.70
2018-12-14T08:40:42.411Z,13.23
2018-12-14T08:43:15.836Z,13.23
2018-12-14T08:45:47.475Z,13.27
2018-12-14T08:53:23.134Z,11.83
2018-12-14T08:55:55.031Z,13.63
2018-12-14T08:58:26.792Z,19.40
2018-12-14T09:01:00.199Z,16.13
2018-12-14T09:03:31.591Z,13.17
2018-12-14T09:06:04.961Z,13.90
2018-12-14T09:08:36.268Z,13.63
2018-12-14T09:11:07.492Z,13.67
2018-12-14T09:13:47.701Z,13.13
2018-12-14T09:16:14.464Z,15.53
2018-12-14T09:18:48.101Z,14.17
2018-12-14T09:21:21.903Z,13.50
2018-12-14T09:23:53.539Z,19.87
2018-12-14T09:26:24.533Z,14.13
2018-12-14T09:28:55.524Z,14.47
2018-12-14T09:31:26.711Z,15.30
2018-12-14T09:33:58.474Z,14.77
2018-12-14T09:36:29.727Z,17.20
2018-12-14T09:39:01.675Z,14.30
2018-12-14T09:41:32.526Z,14.47
2018-12-14T09:44:03.499Z,13.27
2018-12-14T09:46:37.182Z,14.90
2018-12-14T09:49:07.511Z,15.03
2018-12-14T09:51:38.363Z,13.20
2018-12-14T09:54:10.154Z,15.20
2018-12-14T09:56:44.096Z,15.73
2018-12-14T09:59:15.339Z,13.13
2018-12-14T10:01:46.353Z,17.17
2018-12-14T10:04:17.372Z,16.97
2018-12-14T10:06:48.384Z,17.63
2018-12-14T10:09:19.237Z,13.97
2018-12-14T10:11:55.331Z,14.77
2018-12-14T10:14:25.952Z,14.40
2018-12-14T10:16:56.939Z,15.10
2018-12-14T10:19:27.979Z,14.83
2018-12-14T10:22:01.400Z,17.17
2018-12-14T10:24:32.879Z,14.43
2018-12-14T10:27:03.906Z,17.50
2018-12-14T10:29:34.828Z,15.03
2018-12-14T10:32:06.144Z,14.83
2018-12-14T10:34:36.955Z,15.60
2018-12-14T10:37:08.291Z,16.63
2018-12-14T10:39:41.918Z,16.37
2018-12-14T10:42:13.291Z,14.07
2018-12-14T10:44:44.147Z,13.60
2018-12-14T10:47:15.232Z,12.33
2018-12-14T10:49:46.441Z,13.70
2018-12-14T10:52:17.551Z,17.70
2018-12-14T10:54:49.543Z,15.50
2018-12-14T10:57:21.408Z,14.90
2018-12-14T10:59:52.315Z,14.27
2018-12-14T11:02:23.496Z,17.83
2018-12-14T11:04:56.887Z,14.27
2018-12-14T11:07:29.467Z,14.50
2018-12-14T11:10:03.387Z,16.33
2018-12-14T11:12:34.374Z,14.40
2018-12-14T11:15:05.827Z,14.50
2018-12-14T11:17:37.251Z,13.77
2018-12-14T11:20:09.118Z,14.63
2018-12-14T11:22:42.498Z,14.83
2018-12-14T11:25:16.427Z,17.73
2018-12-14T11:27:48.097Z,13.97
2018-12-14T11:30:19.235Z,13.90
2018-12-14T11:32:50.173Z,15.50
2018-12-14T11:35:21.060Z,15.77
2018-12-14T11:37:51.840Z,15.53
2018-12-14T11:40:26.421Z,16.67
2018-12-14T11:42:57.659Z,17.40
2018-12-14T11:45:28.527Z,14.13
2018-12-14T11:47:59.575Z,15.80
2018-12-14T11:50:30.532Z,14.33
2018-12-14T11:53:01.367Z,11.87
2018-12-14T11:55:35.227Z,15.37
2018-12-14T11:58:06.795Z,14.93
2018-12-14T12:00:38.507Z,15.87
2018-12-14T12:03:09.799Z,13.37
2018-12-14T12:05:40.843Z,16.47
2018-12-14T12:08:13.245Z,15.77
2018-12-14T12:10:44.715Z,14.83
2018-12-14T12:13:14.527Z,12.57
2018-12-14T12:15:45.769Z,14.03
2018-12-14T12:18:16.555Z,15.43
2018-12-14T12:20:47.503Z,15.17
2018-12-14T12:23:18.612Z,13.37
2018-12-14T12:25:49.619Z,15.53
2018-12-14T12:28:20.459Z,14.33
2018-12-14T12:30:51.620Z,15.47
2018-12-14T12:33:22.663Z,18.50
2018-12-14T12:35:56.199Z,13.20
2018-12-14T12:38:29.963Z,15.63
2018-12-14T12:41:01.545Z,15.70
2018-12-14T12:46:36.479Z,14.20
2018-12-14T12:49:08.339Z,13.33
2018-12-14T12:51:39.468Z,14.50
2018-12-14T12:54:10.290Z,12.97
2018-12-14T12:56:41.255Z,17.97
2018-12-14T12:59:12.457Z,14.57
2018-12-14T13:01:43.543Z,13.07
2018-12-14T13:04:14.482Z,17.00
2018-12-14T13:06:46.353Z,14.83
2018-12-14T13:09:17.179Z,14.60
2018-12-14T13:11:48.811Z,13.13
2018-12-14T13:14:22.463Z,14.73
2018-12-14T13:16:54.066Z,15.07
2018-12-14T13:19:25.144Z,12.20
2018-12-14T13:21:56.015Z,14.10
2018-12-14T13:24:27.066Z,12.87
2018-12-14T13:26:57.947Z,13.20
2018-12-14T13:29:28.959Z,15.50
2018-12-14T13:32:02.775Z,14.37
2018-12-14T13:34:36.786Z,14.10
2018-12-14T13:37:10.551Z,12.97
2018-12-14T13:39:39.954Z,14.07
2018-12-14T13:42:11.247Z,12.97
2018-12-14T13:44:46.676Z,14.60
2018-12-14T13:47:18.023Z,14.03
2018-12-14T13:49:48.991Z,15.17
2018-12-14T13:52:20.231Z,13.83
2018-12-14T13:57:20.279Z,15.17
2018-12-14T13:59:53.847Z,13.63
2018-12-14T14:02:25.180Z,13.73
2018-12-14T14:04:56.915Z,14.30
2018-12-14T14:07:27.839Z,13.90
2018-12-14T14:13:02.216Z,13.10
2018-12-14T14:15:33.235Z,14.13
2018-12-14T14:18:04.180Z,13.67
2018-12-14T14:20:35.398Z,10.80
2018-12-14T14:23:05.007Z,14.90
2018-12-14T14:25:38.871Z,17.47
2018-12-14T14:28:10.505Z,12.37
2018-12-14T14:30:42.146Z,13.13
2018-12-14T14:33:13.070Z,11.93
2018-12-14T14:35:44.423Z,13.03
2018-12-14T14:38:15.262Z,12.73
2018-12-14T14:40:46.027Z,11.87
2018-12-14T14:43:19.662Z,14.47
2018-12-14T14:45:51.178Z,12.20
2018-12-14T14:48:22.215Z,12.27
2018-12-14T14:50:56.151Z,13.27
2018-12-14T14:53:27.568Z,12.57
2018-12-14T15:06:02.489Z,12.47
2018-12-14T15:08:36.350Z,14.97
2018-12-14T15:11:08.020Z,15.30
2018-12-14T15:13:38.988Z,15.50
2018-12-14T15:16:16.803Z,12.93
2018-12-14T15:18:48.937Z,14.07
2018-12-14T15:21:22.436Z,16.80
2018-12-14T15:23:53.991Z,15.33
2018-12-14T15:26:26.207Z,15.63
2018-12-14T15:28:58.095Z,13.97
2018-12-14T15:31:31.276Z,14.23
2018-12-14T15:34:04.535Z,14.90
2018-12-14T15:36:37.983Z,16.80
2018-12-14T15:39:09.275Z,16.33
2018-12-14T15:41:40.287Z,16.13
2018-12-14T15:44:11.391Z,12.87
2018-12-14T15:46:44.934Z,13.83
2018-12-14T15:49:16.107Z,12.87
2018-12-14T15:51:49.627Z,15.27
2018-12-14T15:54:21.195Z,14.83
2018-12-14T15:56:52.599Z,12.73
2018-12-14T15:59:23.651Z,14.33
2018-12-14T16:01:57.128Z,16.83
2018-12-14T16:07:01.250Z,15.53
2018-12-14T16:09:32.246Z,17.87
2018-12-14T16:12:03.320Z,18.33
2018-12-14T16:14:36.808Z,15.80
2018-12-14T16:17:08.768Z,17.80
2018-12-14T16:19:40.336Z,14.77
2018-12-14T16:22:13.907Z,13.43
2018-12-14T16:24:45.282Z,16.03
2018-12-14T16:27:16.735Z,17.30
2018-12-14T16:29:48.717Z,14.80
2018-12-14T16:32:19.695Z,15.83
2018-12-14T16:34:50.644Z,15.90
2018-12-14T16:37:21.849Z,16.27
2018-12-14T16:39:52.921Z,15.93
2018-12-14T16:42:23.794Z,17.57
2018-12-14T16:44:55.426Z,15.57
2018-12-14T16:47:29.003Z,14.27
2018-12-14T16:50:03.588Z,15.83
2018-12-14T16:52:35.218Z,15.07
2018-12-14T16:55:07.640Z,13.07
2018-12-14T16:57:41.852Z,22.17
2018-12-14T17:00:13.752Z,20.77
2018-12-14T17:02:47.695Z,16.03
2018-12-14T17:10:19.736Z,15.33
2018-12-14T17:12:50.747Z,16.57
2018-12-14T17:15:21.695Z,15.63
2018-12-14T17:17:52.623Z,20.23
2018-12-14T17:20:23.767Z,17.10
2018-12-14T17:22:55.339Z,13.20
2018-12-14T17:25:26.437Z,14.90
2018-12-14T17:27:57.566Z,17.00
2018-12-14T17:30:28.723Z,16.13
2018-12-14T17:33:00.368Z,14.87
2018-12-14T17:35:33.827Z,15.33
2018-12-14T17:38:05.504Z,13.07
2018-12-14T17:40:36.475Z,15.47
2018-12-14T17:43:07.746Z,14.13
2018-12-14T17:45:41.100Z,14.17
2018-12-14T17:48:14.953Z,15.87
2018-12-14T17:50:44.499Z,12.40
2018-12-14T17:53:15.615Z,14.13
2018-12-14T17:55:46.842Z,13.07
2018-12-14T17:58:17.743Z,13.87
2018-12-14T18:00:48.855Z,16.23
2018-12-14T18:03:19.799Z,12.37
2018-12-14T18:05:53.432Z,15.50
2018-12-14T18:08:24.625Z,14.93
2018-12-14T18:10:55.949Z,14.77
2018-12-14T18:13:26.919Z,12.33
2018-12-14T18:15:57.868Z,13.90
2018-12-14T18:18:28.924Z,14.70
2018-12-14T18:21:00.235Z,13.93
2018-12-14T18:23:31.295Z,15.10
2018-12-14T18:26:02.997Z,14.97
2018-12-14T18:28:34.567Z,15.13
2018-12-14T18:31:05.740Z,18.07
2018-12-14T18:33:43.524Z,18.43
2018-12-14T18:36:14.456Z,17.03
2018-12-14T18:38:45.636Z,14.57
2018-12-14T18:41:16.523Z,16.80
2018-12-14T18:43:50.226Z,17.03
2018-12-14T18:46:21.309Z,15.20
2018-12-14T18:48:52.392Z,16.67
2018-12-14T18:51:23.664Z,17.03
2018-12-14T18:53:58.751Z,18.80
2018-12-14T18:56:29.799Z,15.57
2018-12-14T18:59:01.710Z,17.97
2018-12-14T19:01:32.500Z,17.10
2018-12-14T19:04:03.803Z,19.60
2018-12-14T19:06:35.924Z,17.33
2018-12-14T19:09:08.564Z,16.87
2018-12-14T19:11:39.534Z,16.50
2018-12-14T19:14:10.787Z,15.00
2018-12-14T19:16:41.739Z,18.07
2018-12-14T19:19:13.635Z,18.37
2018-12-14T19:21:45.747Z,14.23
2018-12-14T19:24:16.655Z,15.60
2018-12-14T19:26:50.078Z,21.40
2018-12-14T19:29:21.223Z,19.07
2018-12-14T19:31:52.261Z,20.77
2018-12-14T19:34:31.243Z,16.43
2018-12-14T19:36:59.535Z,14.27
2018-12-14T19:39:30.911Z,14.97
2018-12-14T19:42:04.235Z,20.90
2018-12-14T19:44:36.998Z,16.57
2018-12-14T19:47:09.101Z,19.90
2018-12-14T19:49:40.756Z,16.17
2018-12-14T19:52:12.091Z,15.73
2018-12-14T19:54:43.739Z,17.10
2018-12-14T19:57:14.891Z,15.23
2018-12-14T19:59:48.249Z,16.33
2018-12-14T20:02:20.043Z,16.87
2018-12-14T20:04:50.971Z,18.53
2018-12-14T20:07:22.145Z,16.63
2018-12-14T20:14:56.901Z,15.60
2018-12-14T20:17:28.299Z,17.27
2018-12-14T20:20:00.063Z,22.90
2018-12-14T20:22:29.311Z,21.03
2018-12-14T20:25:03.397Z,18.40
2018-12-14T20:27:34.584Z,16.07
2018-12-14T20:30:08.625Z,18.00
2018-12-14T20:32:44.199Z,18.00
2018-12-14T20:35:15.920Z,19.47
2018-12-14T20:37:47.895Z,17.07
2018-12-14T20:40:20.071Z,15.53
2018-12-14T20:42:52.266Z,16.50
2018-12-14T20:45:26.566Z,16.93
2018-12-14T20:47:57.898Z,16.33
2018-12-14T20:50:32.560Z,16.10
2018-12-14T20:53:03.978Z,15.77
2018-12-14T20:55:34.851Z,16.80
2018-12-14T20:58:05.776Z,15.83
2018-12-14T21:00:37.109Z,15.70
2018-12-14T21:03:08.747Z,14.37
2018-12-14T21:05:42.623Z,16.67
2018-12-14T21:08:14.015Z,20.07
2018-12-14T21:10:45.291Z,17.97
2018-12-14T21:15:48.081Z,16.30
2018-12-14T21:18:19.881Z,15.83
2018-12-14T21:20:50.806Z,14.10
2018-12-14T21:23:22.122Z,15.30
2018-12-14T21:25:55.539Z,17.13
2018-12-14T21:28:27.040Z,15.23
2018-12-14T21:30:58.023Z,13.17
2018-12-14T21:33:31.827Z,21.57
2018-12-14T21:36:03.472Z,17.50
2018-12-14T21:38:35.048Z,16.37
2018-12-14T21:41:06.144Z,13.97
2018-12-14T21:43:39.476Z,13.37
2018-12-14T21:46:10.935Z,16.57
2018-12-14T21:48:41.975Z,16.93
2018-12-14T21:51:12.819Z,15.93
2018-12-14T21:53:46.299Z,17.33
2018-12-14T21:56:17.709Z,16.13
2018-12-14T21:58:49.363Z,18.10
2018-12-14T22:01:20.633Z,13.90
2018-12-14T22:03:51.553Z,18.73
2018-12-14T22:06:25.355Z,17.30
2018-12-14T22:08:57.063Z,15.57
2018-12-14T22:11:28.850Z,15.43
2018-12-14T22:13:59.750Z,15.80
2018-12-14T22:21:34.267Z,16.13
2018-12-14T22:24:07.738Z,19.30
2018-12-14T22:26:39.171Z,22.77
2018-12-14T22:29:10.428Z,18.53
2018-12-14T22:31:42.117Z,17.13
2018-12-14T22:34:13.433Z,17.90
2018-12-14T22:36:45.239Z,15.63
2018-12-14T22:39:17.127Z,16.90
2018-12-14T22:41:48.231Z,18.07
2018-12-14T22:44:21.596Z,18.07
2018-12-14T22:46:54.854Z,19.50
2018-12-14T22:49:26.675Z,25.57
2018-12-14T22:51:59.098Z,20.77
2018-12-14T22:54:30.151Z,20.13
2018-12-14T22:57:00.969Z,20.40
2018-12-14T22:59:31.934Z,17.60
2018-12-14T23:02:03.968Z,18.53
2018-12-14T23:04:35.728Z,19.70
2018-12-14T23:07:07.160Z,18.07
2018-12-14T23:09:38.719Z,16.90
2018-12-14T23:12:09.923Z,17.67
2018-12-14T23:14:40.936Z,15.87
2018-12-14T23:17:14.865Z,17.60
2018-12-14T23:19:46.942Z,18.67
2018-12-14T23:24:46.710Z,17.13
2018-12-14T23:27:18.653Z,25.17
2018-12-14T23:29:49.961Z,17.73
2018-12-14T23:32:21.697Z,19.90
2018-12-14T23:34:53.059Z,15.83
2018-12-14T23:37:25.889Z,20.60
2018-12-14T23:39:57.315Z,18.33
2018-12-14T23:42:30.988Z,17.93
2018-12-14T23:45:02.936Z,19.87
2018-12-14T23:47:34.515Z,18.87
2018-12-14T23:50:05.733Z,17.47
2018-12-14T23:52:37.327Z,15.87
2018-12-14T23:55:08.577Z,21.40
2018-12-14T23:57:40.414Z,18.37
